sensor_id;sensor_type;location;lat;lon;timestamp;pressure;altitude;pressure_sealevel;temperature;humidity
55301;BME280;58302;51.446;-2.000;2023-10-19T00:00:37;97930.72;;;11.48;100.00
55301;BME280;58302;51.446;-2.000;2023-10-19T00:03:13;97942.78;;;11.39;100.00
55301;BME280;58302;51.446;-2.000;2023-10-19T00:05:40;97950.34;;;11.33;100.00
55301;BME280;58302;51.446;-2.000;2023-10-19T00:08:10;97944.97;;;11.24;100.00
55301;BME280;58302;51.446;-2.000;2023-10-19T00:10:51;97941.47;;;11.24;100.00
55301;BME280;58302;51.446;-2.000;2023-10-19T00:13:28;97944.38;;;11.19;100.00
55301;BME280;58302;51.446;-2.000;2023-10-19T00:15:56;97933.09;;;11.08;100.00
55301;BME280;58302;51.446;-2.000;2023-10-19T00:18:23;97935.53;;;11.01;100.00
55301;BME280;58302;51.446;-2.000;2023-10-19T00:20:52;97921.16;;;11.00;100.00
55301;BME280;58302;51.446;-2.000;2023-10-19T00:23:20;97932.28;;;11.07;100.00
55301;BME280;58302;51.446;-2.000;2023-10-19T00:25:58;97933.84;;;11.17;100.00
55301;BME280;58302;51.446;-2.000;2023-10-19T00:28:27;97926.41;;;11.26;100.00
55301;BME280;58302;51.446;-2.000;2023-10-19T00:30:54;97943.09;;;11.37;100.00
55301;BME280;58302;51.446;-2.000;2023-10-19T00:33:25;97927.72;;;11.41;100.00
55301;BME280;58302;51.446;-2.000;2023-10-19T00:35:55;97923.06;;;11.42;100.00
55301;BME280;58302;51.446;-2.000;2023-10-19T00:38:39;97936.97;;;11.49;100.00
55301;BME280;58302;51.446;-2.000;2023-10-19T00:41:08;97945.13;;;11.49;100.00
55301;BME280;58302;51.446;-2.000;2023-10-19T00:43:38;97944.44;;;11.52;100.00
55301;BME280;58302;51.446;-2.000;2023-10-19T00:46:11;97947.75;;;11.57;100.00
55301;BME280;58302;51.446;-2.000;2023-10-19T00:48:57;97949.47;;;11.62;100.00
55301;BME280;58302;51.446;-2.000;2023-10-19T00:51:32;97935.66;;;11.67;100.00
55301;BME280;58302;51.446;-2.000;2023-10-19T00:54:09;97945.06;;;11.70;100.00
55301;BME280;58302;51.446;-2.000;2023-10-19T00:56:43;97944.41;;;11.73;100.00
55301;BME280;58302;51.446;-2.000;2023-10-19T00:59:26;97938.31;;;11.76;100.00
55301;BME280;58302;51.446;-2.000;2023-10-19T01:01:57;97932.63;;;11.81;100.00
55301;BME280;58302;51.446;-2.000;2023-10-19T01:04:50;97928.50;;;11.83;100.00
55301;BME280;58302;51.446;-2.000;2023-10-19T01:07:32;97940.31;;;11.88;100.00
55301;BME280;58302;51.446;-2.000;2023-10-19T01:10:06;97930.22;;;11.88;100.00
55301;BME280;58302;51.446;-2.000;2023-10-19T01:12:51;97939.75;;;11.94;100.00
55301;BME280;58302;51.446;-2.000;2023-10-19T01:15:21;97921.50;;;11.95;100.00
55301;BME280;58302;51.446;-2.000;2023-10-19T01:17:58;97928.53;;;11.96;100.00
55301;BME280;58302;51.446;-2.000;2023-10-19T01:20:28;97937.19;;;11.98;100.00
55301;BME280;58302;51.446;-2.000;2023-10-19T01:23:05;97938.06;;;12.02;100.00
55301;BME280;58302;51.446;-2.000;2023-10-19T01:25:51;97943.66;;;12.05;100.00
55301;BME280;58302;51.446;-2.000;2023-10-19T01:28:36;97936.41;;;12.09;100.00
55301;BME280;58302;51.446;-2.000;2023-10-19T01:31:21;97931.75;;;12.10;100.00
55301;BME280;58302;51.446;-2.000;2023-10-19T01:34:00;97921.66;;;12.10;100.00
55301;BME280;58302;51.446;-2.000;2023-10-19T01:36:37;97915.88;;;12.12;100.00
55301;BME280;58302;51.446;-2.000;2023-10-19T01:39:16;97915.66;;;12.17;100.00
55301;BME280;58302;51.446;-2.000;2023-10-19T01:41:54;97927.91;;;12.23;100.00
55301;BME280;58302;51.446;-2.000;2023-10-19T01:44:22;97933.25;;;12.20;100.00
55301;BME280;58302;51.446;-2.000;2023-10-19T01:47:08;97943.34;;;12.19;100.00
55301;BME280;58302;51.446;-2.000;2023-10-19T01:49:37;97926.31;;;12.22;100.00
55301;BME280;58302;51.446;-2.000;2023-10-19T01:52:04;97935.63;;;12.21;100.00
55301;BME280;58302;51.446;-2.000;2023-10-19T01:54:32;97925.19;;;12.23;100.00
55301;BME280;58302;51.446;-2.000;2023-10-19T01:57:02;97920.31;;;12.29;100.00
55301;BME280;58302;51.446;-2.000;2023-10-19T01:59:33;97918.53;;;12.33;100.00
55301;BME280;58302;51.446;-2.000;2023-10-19T02:02:01;97914.00;;;12.37;100.00
55301;BME280;58302;51.446;-2.000;2023-10-19T02:04:28;97898.44;;;12.37;100.00
55301;BME280;58302;51.446;-2.000;2023-10-19T02:07:02;97905.91;;;12.40;100.00
55301;BME280;58302;51.446;-2.000;2023-10-19T02:10:04;97903.53;;;12.39;100.00
55301;BME280;58302;51.446;-2.000;2023-10-19T02:12:39;97900.16;;;12.42;100.00
55301;BME280;58302;51.446;-2.000;2023-10-19T02:15:21;97890.50;;;12.45;100.00
55301;BME280;58302;51.446;-2.000;2023-10-19T02:21:11;97878.00;;;12.56;100.00
55301;BME280;58302;51.446;-2.000;2023-10-19T02:23:42;97871.53;;;12.60;100.00
55301;BME280;58302;51.446;-2.000;2023-10-19T02:26:10;97867.88;;;12.69;100.00
55301;BME280;58302;51.446;-2.000;2023-10-19T02:28:52;97860.63;;;12.73;100.00
55301;BME280;58302;51.446;-2.000;2023-10-19T02:31:19;97858.00;;;12.76;100.00
55301;BME280;58302;51.446;-2.000;2023-10-19T02:33:50;97854.94;;;12.78;100.00
55301;BME280;58302;51.446;-2.000;2023-10-19T02:36:43;97851.97;;;12.83;100.00
55301;BME280;58302;51.446;-2.000;2023-10-19T02:39:24;97841.38;;;12.93;100.00
55301;BME280;58302;51.446;-2.000;2023-10-19T02:42:03;97838.41;;;12.99;100.00
55301;BME280;58302;51.446;-2.000;2023-10-19T02:47:48;97819.88;;;13.04;100.00
55301;BME280;58302;51.446;-2.000;2023-10-19T02:50:41;97810.56;;;13.05;100.00
55301;BME280;58302;51.446;-2.000;2023-10-19T02:53:23;97800.44;;;13.06;100.00
55301;BME280;58302;51.446;-2.000;2023-10-19T02:58:59;97789.91;;;13.04;100.00
55301;BME280;58302;51.446;-2.000;2023-10-19T03:01:36;97791.84;;;13.04;100.00
55301;BME280;58302;51.446;-2.000;2023-10-19T03:04:06;97784.09;;;13.06;100.00
55301;BME280;58302;51.446;-2.000;2023-10-19T03:06:40;97785.00;;;13.10;100.00
55301;BME280;58302;51.446;-2.000;2023-10-19T03:09:20;97769.41;;;13.10;100.00
55301;BME280;58302;51.446;-2.000;2023-10-19T03:11:55;97766.69;;;13.10;100.00
55301;BME280;58302;51.446;-2.000;2023-10-19T03:14:41;97766.56;;;13.19;100.00
55301;BME280;58302;51.446;-2.000;2023-10-19T03:17:07;97760.59;;;13.29;100.00
55301;BME280;58302;51.446;-2.000;2023-10-19T03:19:44;97753.94;;;13.42;100.00
55301;BME280;58302;51.446;-2.000;2023-10-19T03:22:22;97748.06;;;13.56;100.00
55301;BME280;58302;51.446;-2.000;2023-10-19T03:25:07;97736.44;;;13.59;100.00
55301;BME280;58302;51.446;-2.000;2023-10-19T04:11:50;97610.81;;;14.07;100.00
55301;BME280;58302;51.446;-2.000;2023-10-19T04:14:17;97609.66;;;14.08;100.00
55301;BME280;58302;51.446;-2.000;2023-10-19T04:16:44;97613.59;;;14.10;100.00
55301;BME280;58302;51.446;-2.000;2023-10-19T04:19:11;97609.00;;;14.14;100.00
55301;BME280;58302;51.446;-2.000;2023-10-19T04:21:38;97606.28;;;14.14;100.00
55301;BME280;58302;51.446;-2.000;2023-10-19T04:24:10;97607.84;;;14.15;100.00
55301;BME280;58302;51.446;-2.000;2023-10-19T04:26:37;97602.03;;;14.17;100.00
55301;BME280;58302;51.446;-2.000;2023-10-19T04:29:04;97599.28;;;14.17;100.00
55301;BME280;58302;51.446;-2.000;2023-10-19T04:31:40;97598.16;;;14.18;100.00
55301;BME280;58302;51.446;-2.000;2023-10-19T04:34:17;97606.78;;;14.20;100.00
55301;BME280;58302;51.446;-2.000;2023-10-19T04:36:47;97619.38;;;14.24;100.00
55301;BME280;58302;51.446;-2.000;2023-10-19T04:39:13;97611.59;;;14.27;100.00
55301;BME280;58302;51.446;-2.000;2023-10-19T04:41:44;97624.88;;;14.28;100.00
55301;BME280;58302;51.446;-2.000;2023-10-19T04:44:10;97608.50;;;14.28;100.00
55301;BME280;58302;51.446;-2.000;2023-10-19T04:50:08;97605.22;;;14.19;100.00
55301;BME280;58302;51.446;-2.000;2023-10-19T05:28:46;97603.88;;;13.93;100.00
55301;BME280;58302;51.446;-2.000;2023-10-19T05:31:14;97608.56;;;13.93;100.00
55301;BME280;58302;51.446;-2.000;2023-10-19T05:33:56;97601.50;;;13.92;100.00
55301;BME280;58302;51.446;-2.000;2023-10-19T05:36:25;97597.63;;;13.93;100.00
55301;BME280;58302;51.446;-2.000;2023-10-19T05:38:51;97593.41;;;13.95;100.00
55301;BME280;58302;51.446;-2.000;2023-10-19T05:41:18;97589.88;;;13.95;100.00
55301;BME280;58302;51.446;-2.000;2023-10-19T05:43:46;97591.47;;;13.96;100.00
55301;BME280;58302;51.446;-2.000;2023-10-19T05:46:19;97593.84;;;13.97;100.00
55301;BME280;58302;51.446;-2.000;2023-10-19T05:48:48;97586.78;;;13.96;100.00
55301;BME280;58302;51.446;-2.000;2023-10-19T05:51:15;97586.78;;;13.96;100.00
55301;BME280;58302;51.446;-2.000;2023-10-19T05:53:47;97590.31;;;13.97;100.00
55301;BME280;58302;51.446;-2.000;2023-10-19T05:56:14;97585.22;;;13.95;100.00
55301;BME280;58302;51.446;-2.000;2023-10-19T05:58:51;97584.91;;;14.01;100.00
55301;BME280;58302;51.446;-2.000;2023-10-19T06:01:28;97585.38;;;14.03;100.00
55301;BME280;58302;51.446;-2.000;2023-10-19T06:03:54;97587.63;;;14.01;100.00
55301;BME280;58302;51.446;-2.000;2023-10-19T06:06:29;97591.25;;;14.05;100.00
55301;BME280;58302;51.446;-2.000;2023-10-19T06:08:58;97590.81;;;14.03;100.00
55301;BME280;58302;51.446;-2.000;2023-10-19T06:11:28;97599.28;;;13.97;100.00
55301;BME280;58302;51.446;-2.000;2023-10-19T06:13:58;97590.59;;;13.92;100.00
55301;BME280;58302;51.446;-2.000;2023-10-19T06:16:25;97588.28;;;13.94;100.00
55301;BME280;58302;51.446;-2.000;2023-10-19T06:18:54;97598.94;;;13.99;100.00
55301;BME280;58302;51.446;-2.000;2023-10-19T06:21:20;97594.91;;;13.93;100.00
55301;BME280;58302;51.446;-2.000;2023-10-19T06:23:46;97604.03;;;14.01;100.00
55301;BME280;58302;51.446;-2.000;2023-10-19T06:26:15;97603.75;;;14.06;100.00
55301;BME280;58302;51.446;-2.000;2023-10-19T06:28:41;97604.53;;;14.06;100.00
55301;BME280;58302;51.446;-2.000;2023-10-19T06:31:07;97602.63;;;14.07;100.00
55301;BME280;58302;51.446;-2.000;2023-10-19T06:33:34;97598.28;;;14.06;100.00
55301;BME280;58302;51.446;-2.000;2023-10-19T06:36:13;97612.81;;;14.10;100.00
55301;BME280;58302;51.446;-2.000;2023-10-19T06:38:39;97615.53;;;14.10;100.00
55301;BME280;58302;51.446;-2.000;2023-10-19T06:41:13;97615.97;;;14.12;100.00
55301;BME280;58302;51.446;-2.000;2023-10-19T06:44:01;97610.44;;;14.08;100.00
55301;BME280;58302;51.446;-2.000;2023-10-19T06:48:55;97620.59;;;14.08;100.00
55301;BME280;58302;51.446;-2.000;2023-10-19T06:51:26;97613.53;;;14.07;100.00
55301;BME280;58302;51.446;-2.000;2023-10-19T06:53:53;97621.28;;;14.05;100.00
55301;BME280;58302;51.446;-2.000;2023-10-19T06:56:19;97623.59;;;14.03;100.00
55301;BME280;58302;51.446;-2.000;2023-10-19T06:58:50;97629.84;;;14.03;100.00
55301;BME280;58302;51.446;-2.000;2023-10-19T07:01:25;97635.31;;;14.03;100.00
55301;BME280;58302;51.446;-2.000;2023-10-19T07:04:00;97630.63;;;14.04;100.00
55301;BME280;58302;51.446;-2.000;2023-10-19T07:06:26;97640.75;;;14.03;100.00
55301;BME280;58302;51.446;-2.000;2023-10-19T07:08:56;97642.34;;;14.04;100.00
55301;BME280;58302;51.446;-2.000;2023-10-19T07:11:22;97635.16;;;13.96;100.00
55301;BME280;58302;51.446;-2.000;2023-10-19T07:13:53;97642.22;;;13.81;100.00
55301;BME280;58302;51.446;-2.000;2023-10-19T07:16:19;97638.97;;;13.76;100.00
55301;BME280;58302;51.446;-2.000;2023-10-19T07:18:46;97642.66;;;13.67;100.00
55301;BME280;58302;51.446;-2.000;2023-10-19T07:21:14;97637.69;;;13.54;100.00
55301;BME280;58302;51.446;-2.000;2023-10-19T07:23:40;97635.91;;;13.45;100.00
55301;BME280;58302;51.446;-2.000;2023-10-19T07:26:28;97631.53;;;13.41;100.00
55301;BME280;58302;51.446;-2.000;2023-10-19T08:12:11;97621.47;;;14.70;100.00
55301;BME280;58302;51.446;-2.000;2023-10-19T08:14:55;97623.63;;;15.26;100.00
55301;BME280;58302;51.446;-2.000;2023-10-19T08:17:34;97619.44;;;15.81;100.00
55301;BME280;58302;51.446;-2.000;2023-10-19T08:20:12;97618.78;;;16.18;100.00
55301;BME280;58302;51.446;-2.000;2023-10-19T08:23:07;97593.84;;;16.27;100.00
55301;BME280;58302;51.446;-2.000;2023-10-19T08:25:34;97585.19;;;16.25;100.00
55301;BME280;58302;51.446;-2.000;2023-10-19T08:28:05;97574.03;;;16.07;100.00
55301;BME280;58302;51.446;-2.000;2023-10-19T08:30:42;97554.97;;;15.88;100.00
55301;BME280;58302;51.446;-2.000;2023-10-19T08:33:16;97547.63;;;15.65;100.00
55301;BME280;58302;51.446;-2.000;2023-10-19T08:35:42;97545.19;;;15.60;100.00
55301;BME280;58302;51.446;-2.000;2023-10-19T08:38:24;97535.34;;;15.55;100.00
55301;BME280;58302;51.446;-2.000;2023-10-19T08:40:53;97540.41;;;16.10;100.00
55301;BME280;58302;51.446;-2.000;2023-10-19T08:43:23;97523.78;;;16.67;100.00
55301;BME280;58302;51.446;-2.000;2023-10-19T08:45:51;97510.75;;;16.94;100.00
55301;BME280;58302;51.446;-2.000;2023-10-19T08:48:19;97507.03;;;17.23;100.00
55301;BME280;58302;51.446;-2.000;2023-10-19T08:50:45;97498.84;;;17.30;100.00
55301;BME280;58302;51.446;-2.000;2023-10-19T08:53:13;97466.78;;;17.45;100.00
55301;BME280;58302;51.446;-2.000;2023-10-19T08:55:40;97478.91;;;17.37;100.00
55301;BME280;58302;51.446;-2.000;2023-10-19T08:58:08;97464.81;;;17.42;100.00
55301;BME280;58302;51.446;-2.000;2023-10-19T09:00:46;97458.34;;;17.09;100.00
55301;BME280;58302;51.446;-2.000;2023-10-19T09:03:13;97452.94;;;17.20;100.00
55301;BME280;58302;51.446;-2.000;2023-10-19T09:05:40;97445.13;;;17.26;100.00
55301;BME280;58302;51.446;-2.000;2023-10-19T09:08:06;97438.56;;;17.52;100.00
55301;BME280;58302;51.446;-2.000;2023-10-19T09:10:33;97422.16;;;17.62;100.00
55301;BME280;58302;51.446;-2.000;2023-10-19T09:13:03;97418.00;;;18.01;100.00
55301;BME280;58302;51.446;-2.000;2023-10-19T09:15:34;97409.41;;;18.34;100.00
55301;BME280;58302;51.446;-2.000;2023-10-19T09:18:15;97405.50;;;18.53;100.00
55301;BME280;58302;51.446;-2.000;2023-10-19T09:20:42;97408.25;;;18.25;100.00
55301;BME280;58302;51.446;-2.000;2023-10-19T09:23:25;97422.63;;;17.79;100.00
55301;BME280;58302;51.446;-2.000;2023-10-19T09:25:55;97426.94;;;17.76;100.00
55301;BME280;58302;51.446;-2.000;2023-10-19T09:28:22;97417.16;;;17.82;100.00
55301;BME280;58302;51.446;-2.000;2023-10-19T09:30:50;97425.66;;;17.56;100.00
55301;BME280;58302;51.446;-2.000;2023-10-19T09:33:19;97426.31;;;17.35;100.00
55301;BME280;58302;51.446;-2.000;2023-10-19T09:35:48;97414.94;;;17.26;100.00
55301;BME280;58302;51.446;-2.000;2023-10-19T09:38:17;97418.31;;;17.78;100.00
55301;BME280;58302;51.446;-2.000;2023-10-19T09:40:54;97412.47;;;17.94;100.00
55301;BME280;58302;51.446;-2.000;2023-10-19T09:43:41;97413.75;;;18.35;100.00
55301;BME280;58302;51.446;-2.000;2023-10-19T09:46:09;97417.28;;;18.50;100.00
55301;BME280;58302;51.446;-2.000;2023-10-19T09:48:41;97418.41;;;18.17;100.00
55301;BME280;58302;51.446;-2.000;2023-10-19T09:51:09;97416.47;;;18.28;100.00
55301;BME280;58302;51.446;-2.000;2023-10-19T09:53:36;97425.53;;;18.50;100.00
55301;BME280;58302;51.446;-2.000;2023-10-19T09:56:06;97422.84;;;18.86;100.00
55301;BME280;58302;51.446;-2.000;2023-10-19T09:58:36;97437.75;;;18.63;100.00
55301;BME280;58302;51.446;-2.000;2023-10-19T10:01:04;97433.78;;;18.50;100.00
55301;BME280;58302;51.446;-2.000;2023-10-19T10:03:47;97435.31;;;18.08;100.00
55301;BME280;58302;51.446;-2.000;2023-10-19T10:06:16;97446.91;;;17.70;100.00
55301;BME280;58302;51.446;-2.000;2023-10-19T10:08:43;97434.66;;;17.49;100.00
55301;BME280;58302;51.446;-2.000;2023-10-19T10:11:18;97427.59;;;17.48;100.00
55301;BME280;58302;51.446;-2.000;2023-10-19T10:13:46;97427.75;;;17.84;100.00
55301;BME280;58302;51.446;-2.000;2023-10-19T10:16:27;97416.88;;;18.44;100.00
55301;BME280;58302;51.446;-2.000;2023-10-19T10:18:58;97417.28;;;18.50;100.00
55301;BME280;58302;51.446;-2.000;2023-10-19T10:21:29;97422.75;;;18.18;100.00
55301;BME280;58302;51.446;-2.000;2023-10-19T10:24:00;97421.09;;;17.85;100.00
55301;BME280;58302;51.446;-2.000;2023-10-19T10:26:28;97425.63;;;17.52;100.00
55301;BME280;58302;51.446;-2.000;2023-10-19T10:29:15;97423.56;;;17.28;100.00
55301;BME280;58302;51.446;-2.000;2023-10-19T10:31:48;97420.28;;;17.04;100.00
55301;BME280;58302;51.446;-2.000;2023-10-19T10:37:06;97423.78;;;17.01;100.00
55301;BME280;58302;51.446;-2.000;2023-10-19T10:39:34;97415.97;;;17.03;100.00
55301;BME280;58302;51.446;-2.000;2023-10-19T10:42:06;97416.72;;;17.00;100.00
55301;BME280;58302;51.446;-2.000;2023-10-19T10:44:40;97410.41;;;16.96;100.00
55301;BME280;58302;51.446;-2.000;2023-10-19T10:47:07;97417.94;;;17.06;100.00
55301;BME280;58302;51.446;-2.000;2023-10-19T10:49:54;97411.91;;;17.52;100.00
55301;BME280;58302;51.446;-2.000;2023-10-19T10:52:35;97397.13;;;17.85;100.00
55301;BME280;58302;51.446;-2.000;2023-10-19T10:55:09;97389.69;;;17.82;100.00
55301;BME280;58302;51.446;-2.000;2023-10-19T10:57:37;97394.78;;;17.77;100.00
55301;BME280;58302;51.446;-2.000;2023-10-19T11:00:12;97396.22;;;17.56;100.00
55301;BME280;58302;51.446;-2.000;2023-10-19T11:02:47;97399.81;;;17.71;100.00
55301;BME280;58302;51.446;-2.000;2023-10-19T11:05:16;97407.69;;;17.73;100.00
55301;BME280;58302;51.446;-2.000;2023-10-19T11:08:06;97414.31;;;17.64;100.00
55301;BME280;58302;51.446;-2.000;2023-10-19T11:10:34;97408.41;;;17.55;100.00
55301;BME280;58302;51.446;-2.000;2023-10-19T11:15:53;97398.34;;;17.08;100.00
55301;BME280;58302;51.446;-2.000;2023-10-19T11:18:42;97410.56;;;16.66;100.00
55301;BME280;58302;51.446;-2.000;2023-10-19T11:21:15;97424.84;;;16.38;100.00
55301;BME280;58302;51.446;-2.000;2023-10-19T11:23:47;97419.25;;;16.27;100.00
55301;BME280;58302;51.446;-2.000;2023-10-19T11:26:17;97427.13;;;16.36;100.00
55301;BME280;58302;51.446;-2.000;2023-10-19T11:28:49;97423.81;;;16.57;100.00
55301;BME280;58302;51.446;-2.000;2023-10-19T11:31:25;97411.91;;;16.83;100.00
55301;BME280;58302;51.446;-2.000;2023-10-19T11:34:29;97407.47;;;17.30;100.00
55301;BME280;58302;51.446;-2.000;2023-10-19T11:51:11;97352.16;;;17.24;100.00
55301;BME280;58302;51.446;-2.000;2023-10-19T11:53:59;97354.44;;;17.04;100.00
55301;BME280;58302;51.446;-2.000;2023-10-19T11:56:44;97348.34;;;16.74;100.00
55301;BME280;58302;51.446;-2.000;2023-10-19T12:02:43;97357.41;;;16.30;100.00
55301;BME280;58302;51.446;-2.000;2023-10-19T12:05:10;97367.13;;;16.24;100.00
55301;BME280;58302;51.446;-2.000;2023-10-19T12:07:37;97360.47;;;16.25;100.00
55301;BME280;58302;51.446;-2.000;2023-10-19T12:10:09;97359.84;;;16.39;100.00
55301;BME280;58302;51.446;-2.000;2023-10-19T12:12:43;97360.78;;;16.60;100.00
55301;BME280;58302;51.446;-2.000;2023-10-19T12:15:12;97357.66;;;16.62;100.00
55301;BME280;58302;51.446;-2.000;2023-10-19T12:17:42;97357.66;;;16.62;100.00
55301;BME280;58302;51.446;-2.000;2023-10-19T12:23:47;97352.44;;;16.46;100.00
55301;BME280;58302;51.446;-2.000;2023-10-19T12:26:17;97353.34;;;16.61;100.00
55301;BME280;58302;51.446;-2.000;2023-10-19T12:28:43;97349.72;;;17.08;100.00
55301;BME280;58302;51.446;-2.000;2023-10-19T12:31:15;97337.03;;;17.59;100.00
55301;BME280;58302;51.446;-2.000;2023-10-19T12:33:50;97333.91;;;17.71;100.00
55301;BME280;58302;51.446;-2.000;2023-10-19T12:36:25;97331.22;;;17.75;100.00
55301;BME280;58302;51.446;-2.000;2023-10-19T12:39:15;97311.13;;;17.63;100.00
55301;BME280;58302;51.446;-2.000;2023-10-19T12:45:24;97307.28;;;18.29;100.00
55301;BME280;58302;51.446;-2.000;2023-10-19T12:48:07;97288.47;;;18.02;100.00
55301;BME280;58302;51.446;-2.000;2023-10-19T12:54:00;97303.53;;;17.21;100.00
55301;BME280;58302;51.446;-2.000;2023-10-19T12:56:32;97289.72;;;16.96;100.00
55301;BME280;58302;51.446;-2.000;2023-10-19T12:59:07;97311.22;;;16.87;100.00
55301;BME280;58302;51.446;-2.000;2023-10-19T13:01:35;97299.78;;;16.74;100.00
55301;BME280;58302;51.446;-2.000;2023-10-19T13:04:01;97307.81;;;16.46;100.00
55301;BME280;58302;51.446;-2.000;2023-10-19T13:06:40;97320.16;;;16.25;100.00
55301;BME280;58302;51.446;-2.000;2023-10-19T13:09:15;97323.59;;;16.12;100.00
55301;BME280;58302;51.446;-2.000;2023-10-19T13:11:48;97323.91;;;16.03;100.00
55301;BME280;58302;51.446;-2.000;2023-10-19T13:14:18;97322.72;;;16.00;100.00
55301;BME280;58302;51.446;-2.000;2023-10-19T13:17:02;97328.19;;;16.00;100.00
55301;BME280;58302;51.446;-2.000;2023-10-19T13:19:33;97327.56;;;16.18;100.00
55301;BME280;58302;51.446;-2.000;2023-10-19T13:22:13;97330.72;;;16.23;100.00
55301;BME280;58302;51.446;-2.000;2023-10-19T13:25:11;97328.03;;;16.27;100.00
55301;BME280;58302;51.446;-2.000;2023-10-19T13:27:48;97319.84;;;16.34;100.00
55301;BME280;58302;51.446;-2.000;2023-10-19T13:30:35;97321.09;;;16.44;100.00
55301;BME280;58302;51.446;-2.000;2023-10-19T13:33:06;97304.28;;;16.45;100.00
55301;BME280;58302;51.446;-2.000;2023-10-19T13:35:37;97301.28;;;16.68;100.00
55301;BME280;58302;51.446;-2.000;2023-10-19T13:38:10;97284.59;;;16.91;100.00
55301;BME280;58302;51.446;-2.000;2023-10-19T13:40:48;97247.41;;;17.01;100.00
55301;BME280;58302;51.446;-2.000;2023-10-19T13:43:18;97286.66;;;17.16;100.00
55301;BME280;58302;51.446;-2.000;2023-10-19T13:45:46;97283.47;;;16.99;100.00
55301;BME280;58302;51.446;-2.000;2023-10-19T13:48:15;97283.75;;;16.80;100.00
55301;BME280;58302;51.446;-2.000;2023-10-19T13:50:49;97280.13;;;16.65;100.00
55301;BME280;58302;51.446;-2.000;2023-10-19T13:53:17;97273.16;;;16.78;100.00
55301;BME280;58302;51.446;-2.000;2023-10-19T13:55:44;97270.88;;;16.91;100.00
55301;BME280;58302;51.446;-2.000;2023-10-19T13:58:11;97273.78;;;17.27;100.00
55301;BME280;58302;51.446;-2.000;2023-10-19T14:00:41;97251.47;;;17.57;100.00
55301;BME280;58302;51.446;-2.000;2023-10-19T14:03:09;97247.56;;;17.54;100.00
55301;BME280;58302;51.446;-2.000;2023-10-19T14:05:40;97258.16;;;17.49;100.00
55301;BME280;58302;51.446;-2.000;2023-10-19T14:08:09;97264.03;;;17.47;100.00
55301;BME280;58302;51.446;-2.000;2023-10-19T14:10:36;97245.97;;;17.57;100.00
55301;BME280;58302;51.446;-2.000;2023-10-19T14:13:02;97240.94;;;17.95;100.00
55301;BME280;58302;51.446;-2.000;2023-10-19T14:15:31;97220.53;;;18.21;100.00
55301;BME280;58302;51.446;-2.000;2023-10-19T14:18:00;97242.06;;;18.40;100.00
55301;BME280;58302;51.446;-2.000;2023-10-19T14:20:29;97234.25;;;18.28;100.00
55301;BME280;58302;51.446;-2.000;2023-10-19T14:22:55;97240.53;;;18.35;100.00
55301;BME280;58302;51.446;-2.000;2023-10-19T14:25:22;97248.41;;;18.30;100.00
55301;BME280;58302;51.446;-2.000;2023-10-19T14:27:51;97242.13;;;18.04;100.00
55301;BME280;58302;51.446;-2.000;2023-10-19T14:30:21;97253.06;;;17.61;100.00
55301;BME280;58302;51.446;-2.000;2023-10-19T14:32:47;97248.63;;;17.18;100.00
55301;BME280;58302;51.446;-2.000;2023-10-19T14:35:19;97253.66;;;16.94;100.00
55301;BME280;58302;51.446;-2.000;2023-10-19T14:37:48;97261.44;;;16.85;100.00
55301;BME280;58302;51.446;-2.000;2023-10-19T14:40:19;97278.72;;;16.89;100.00
55301;BME280;58302;51.446;-2.000;2023-10-19T14:42:49;97273.25;;;16.96;100.00
55301;BME280;58302;51.446;-2.000;2023-10-19T14:45:20;97268.91;;;16.88;100.00
55301;BME280;58302;51.446;-2.000;2023-10-19T14:47:48;97274.75;;;16.83;100.00
55301;BME280;58302;51.446;-2.000;2023-10-19T14:50:15;97284.44;;;16.66;100.00
55301;BME280;58302;51.446;-2.000;2023-10-19T14:52:42;97281.53;;;16.41;100.00
55301;BME280;58302;51.446;-2.000;2023-10-19T14:55:10;97289.69;;;16.30;100.00
55301;BME280;58302;51.446;-2.000;2023-10-19T14:57:39;97297.72;;;16.09;100.00
55301;BME280;58302;51.446;-2.000;2023-10-19T15:00:06;97319.09;;;15.89;100.00
55301;BME280;58302;51.446;-2.000;2023-10-19T15:02:42;97310.03;;;15.48;100.00
55301;BME280;58302;51.446;-2.000;2023-10-19T15:05:08;97300.72;;;15.19;100.00
55301;BME280;58302;51.446;-2.000;2023-10-19T15:07:43;97305.41;;;15.18;100.00
55301;BME280;58302;51.446;-2.000;2023-10-19T15:10:14;97299.25;;;15.28;100.00
55301;BME280;58302;51.446;-2.000;2023-10-19T15:12:41;97306.00;;;15.38;100.00
55301;BME280;58302;51.446;-2.000;2023-10-19T15:15:07;97306.53;;;15.51;100.00
55301;BME280;58302;51.446;-2.000;2023-10-19T15:17:38;97305.09;;;15.61;100.00
55301;BME280;58302;51.446;-2.000;2023-10-19T15:20:06;97315.34;;;15.67;100.00
55301;BME280;58302;51.446;-2.000;2023-10-19T15:22:32;97312.28;;;15.76;100.00
55301;BME280;58302;51.446;-2.000;2023-10-19T15:24:59;97313.19;;;15.87;100.00
55301;BME280;58302;51.446;-2.000;2023-10-19T15:27:26;97306.13;;;15.86;100.00
55301;BME280;58302;51.446;-2.000;2023-10-19T15:29:59;97313.13;;;15.80;100.00
55301;BME280;58302;51.446;-2.000;2023-10-19T15:32:26;97307.59;;;15.73;100.00
55301;BME280;58302;51.446;-2.000;2023-10-19T15:34:55;97303.22;;;15.68;100.00
55301;BME280;58302;51.446;-2.000;2023-10-19T15:37:23;97303.50;;;15.60;100.00
55301;BME280;58302;51.446;-2.000;2023-10-19T15:39:51;97306.16;;;15.52;100.00
55301;BME280;58302;51.446;-2.000;2023-10-19T15:42:18;97305.72;;;15.47;100.00
55301;BME280;58302;51.446;-2.000;2023-10-19T15:44:45;97308.00;;;15.41;100.00
55301;BME280;58302;51.446;-2.000;2023-10-19T15:47:12;97301.69;;;15.37;100.00
55301;BME280;58302;51.446;-2.000;2023-10-19T15:49:49;97299.25;;;15.28;100.00
55301;BME280;58302;51.446;-2.000;2023-10-19T15:52:20;97293.34;;;15.23;100.00
55301;BME280;58302;51.446;-2.000;2023-10-19T15:54:48;97293.66;;;15.18;100.00
55301;BME280;58302;51.446;-2.000;2023-10-19T15:57:15;97299.88;;;15.15;100.00
55301;BME280;58302;51.446;-2.000;2023-10-19T15:59:42;97297.84;;;15.08;100.00